createdAt,value
2022-11-10T00:01:08.873Z,1.17
2022-11-10T00:03:54.044Z,1.75
2022-11-10T00:06:41.066Z,1.63
2022-11-10T00:09:26.627Z,1.10
2022-11-10T00:12:12.121Z,2.05
2022-11-10T00:15:16.263Z,0.93
2022-11-10T00:18:03.152Z,1.52
2022-11-10T00:20:48.457Z,1.55
2022-11-10T00:23:35.371Z,2.10
2022-11-10T00:26:21.421Z,1.08
2022-11-10T00:29:06.830Z,2.38
2022-11-10T00:31:52.314Z,1.98
2022-11-10T00:34:37.811Z,1.70
2022-11-10T00:37:23.223Z,1.95
2022-11-10T00:40:09.411Z,1.33
2022-11-10T00:42:58.071Z,1.58
2022-11-10T00:45:44.363Z,1.35
2022-11-10T00:48:29.707Z,1.58
2022-11-10T00:51:25.152Z,1.88
2022-11-10T00:54:10.455Z,1.40
2022-11-10T00:56:55.995Z,1.58
2022-11-10T00:59:41.844Z,1.30
2022-11-10T01:02:28.809Z,2.20
2022-11-10T01:05:14.208Z,1.98
2022-11-10T01:07:59.616Z,1.27
2022-11-10T01:10:44.949Z,2.40
2022-11-10T01:13:30.667Z,1.30
2022-11-10T01:16:19.278Z,2.35
2022-11-10T01:19:04.824Z,1.75
2022-11-10T01:21:51.867Z,2.00
2022-11-10T01:24:37.491Z,1.33
2022-11-10T01:27:22.995Z,1.58
2022-11-10T01:30:08.666Z,2.17
2022-11-10T01:32:55.257Z,1.35
2022-11-10T01:35:40.710Z,1.73
2022-11-10T01:38:31.955Z,1.52
2022-11-10T01:41:17.277Z,1.17
2022-11-10T01:44:20.929Z,1.73
2022-11-10T01:47:06.080Z,1.52
2022-11-10T01:49:53.751Z,1.60
2022-11-10T01:52:40.446Z,1.33
2022-11-10T01:55:26.565Z,1.70
2022-11-10T01:58:15.691Z,1.65
2022-11-10T02:01:01.190Z,1.42
2022-11-10T02:03:52.374Z,1.55
2022-11-10T02:06:43.287Z,1.08
2022-11-10T02:09:28.720Z,2.00
2022-11-10T02:12:14.859Z,1.52
2022-11-10T02:15:00.354Z,1.65
2022-11-10T02:17:47.661Z,1.10
2022-11-10T02:20:33.075Z,1.67
2022-11-10T02:23:30.426Z,1.30
2022-11-10T02:26:24.067Z,1.13
2022-11-10T02:29:09.891Z,2.20
2022-11-10T02:31:54.856Z,1.70
2022-11-10T02:34:40.773Z,1.27
2022-11-10T02:37:26.352Z,1.02
2022-11-10T02:40:12.217Z,1.30
2022-11-10T02:42:57.516Z,1.58
2022-11-10T02:45:46.058Z,2.15
2022-11-10T02:52:55.956Z,1.27
2022-11-10T02:55:41.782Z,1.48
2022-11-10T02:58:26.964Z,1.88
2022-11-10T03:01:12.681Z,1.80
2022-11-10T03:03:58.185Z,1.67
2022-11-10T03:06:43.712Z,1.50
2022-11-10T03:09:29.363Z,1.42
2022-11-10T03:12:14.793Z,2.13
2022-11-10T03:15:00.267Z,1.20
2022-11-10T03:17:45.738Z,1.25
2022-11-10T03:20:32.811Z,2.05
2022-11-10T03:23:21.902Z,1.20
2022-11-10T03:26:08.701Z,1.40
2022-11-10T03:28:53.872Z,1.20
2022-11-10T03:31:39.360Z,2.03
2022-11-10T03:34:29.351Z,1.38
2022-11-10T03:37:16.639Z,1.63
2022-11-10T03:40:02.395Z,1.48
2022-11-10T03:42:47.649Z,2.50
2022-11-10T03:45:33.063Z,1.40
2022-11-10T03:48:18.426Z,1.95
2022-11-10T03:51:03.923Z,1.77
2022-11-10T03:53:49.593Z,1.40
2022-11-10T03:56:34.922Z,2.08
2022-11-10T03:59:20.144Z,1.48
2022-11-10T04:02:05.874Z,1.33
2022-11-10T04:05:09.830Z,1.95
2022-11-10T04:08:20.745Z,2.15
2022-11-10T04:11:06.237Z,2.22
2022-11-10T04:14:09.879Z,1.40
2022-11-10T04:16:55.755Z,0.95
2022-11-10T04:19:42.042Z,1.67
2022-11-10T04:22:46.085Z,1.13
2022-11-10T04:25:51.746Z,1.25
2022-11-10T04:28:37.182Z,1.08
2022-11-10T04:31:24.561Z,2.28
2022-11-10T04:34:12.750Z,1.77
2022-11-10T04:36:58.597Z,1.77
2022-11-10T04:39:44.388Z,2.05
2022-11-10T04:42:29.807Z,1.92
2022-11-10T04:45:15.225Z,1.48
2022-11-10T04:48:01.138Z,1.45
2022-11-10T04:50:46.569Z,1.67
2022-11-10T04:53:32.878Z,1.90
2022-11-10T04:56:20.697Z,2.28
2022-11-10T04:59:06.190Z,2.33
2022-11-10T05:01:51.652Z,1.33
2022-11-10T05:04:37.143Z,0.63
2022-11-10T05:07:22.594Z,1.27
2022-11-10T05:10:08.297Z,1.55
2022-11-10T05:12:58.645Z,1.17
2022-11-10T05:15:44.441Z,1.98
2022-11-10T05:18:30.728Z,1.48
2022-11-10T05:21:16.257Z,1.55
2022-11-10T05:24:05.916Z,1.45
2022-11-10T05:26:51.128Z,1.33
2022-11-10T05:29:36.610Z,2.03
2022-11-10T05:32:21.984Z,1.05
2022-11-10T05:35:07.745Z,1.10
2022-11-10T05:37:52.978Z,1.50
2022-11-10T05:40:38.365Z,1.27
2022-11-10T05:43:24.620Z,1.85
2022-11-10T05:46:10.551Z,2.15
2022-11-10T05:48:56.022Z,1.50
2022-11-10T05:51:41.486Z,1.50
2022-11-10T05:54:26.977Z,1.95
2022-11-10T05:57:15.567Z,2.78
2022-11-10T06:00:01.055Z,1.10
2022-11-10T06:02:46.595Z,1.52
2022-11-10T06:05:35.243Z,2.00
2022-11-10T06:08:21.767Z,1.33
2022-11-10T06:11:07.057Z,1.38
2022-11-10T06:13:52.603Z,1.95
2022-11-10T06:16:38.062Z,2.15
2022-11-10T06:19:23.609Z,1.15
2022-11-10T06:22:08.829Z,1.50
2022-11-10T06:24:54.354Z,1.85
2022-11-10T06:27:43.680Z,1.25
2022-11-10T06:30:30.179Z,1.65
2022-11-10T06:33:41.212Z,1.77
2022-11-10T06:36:28.136Z,1.33
2022-11-10T06:39:20.012Z,1.58
2022-11-10T06:42:05.713Z,1.98
2022-11-10T06:44:51.158Z,2.13
2022-11-10T06:47:36.671Z,1.58
2022-11-10T06:50:23.293Z,2.08
2022-11-10T06:53:10.190Z,2.33
2022-11-10T06:55:55.669Z,1.67
2022-11-10T06:58:45.163Z,1.95
2022-11-10T07:01:30.949Z,1.55
2022-11-10T07:04:20.691Z,1.38
2022-11-10T07:07:06.788Z,1.48
2022-11-10T07:09:52.504Z,1.65
2022-11-10T07:12:37.867Z,1.73
2022-11-10T07:15:23.545Z,2.15
2022-11-10T07:18:09.154Z,1.30
2022-11-10T07:20:54.503Z,1.85
2022-11-10T07:23:40.376Z,2.53
2022-11-10T07:26:25.681Z,2.03
2022-11-10T07:29:11.698Z,2.10
2022-11-10T07:31:56.811Z,2.60
2022-11-10T07:34:42.406Z,1.92
2022-11-10T07:37:28.198Z,1.30
2022-11-10T07:40:13.662Z,1.75
2022-11-10T07:42:59.169Z,2.15
2022-11-10T07:45:44.553Z,1.90
2022-11-10T07:48:29.985Z,2.45
2022-11-10T07:51:15.490Z,1.50
2022-11-10T07:54:01.445Z,1.80
2022-11-10T07:56:47.026Z,2.92
2022-11-10T07:59:33.950Z,2.00
2022-11-10T08:02:19.644Z,1.48
2022-11-10T08:05:05.562Z,1.77
2022-11-10T08:07:52.876Z,1.42
2022-11-10T08:10:39.521Z,2.42
2022-11-10T08:13:25.187Z,2.33
2022-11-10T08:16:10.481Z,2.58
2022-11-10T08:18:56.006Z,1.40
2022-11-10T08:21:41.535Z,2.03
2022-11-10T08:24:26.934Z,1.75
2022-11-10T08:27:12.580Z,1.80
2022-11-10T08:29:58.055Z,1.80
2022-11-10T08:32:43.583Z,1.63
2022-11-10T08:35:31.044Z,1.73
2022-11-10T08:38:22.378Z,2.15
2022-11-10T08:41:08.337Z,1.70
2022-11-10T08:43:53.838Z,1.27
2022-11-10T08:46:39.580Z,1.67
2022-11-10T08:49:25.018Z,1.90
2022-11-10T08:52:11.110Z,1.73
2022-11-10T08:54:56.583Z,1.42
2022-11-10T08:57:42.077Z,2.10
2022-11-10T09:00:31.000Z,2.47
2022-11-10T09:03:19.896Z,1.25
2022-11-10T09:06:05.785Z,1.60
2022-11-10T09:08:51.751Z,1.90
2022-11-10T09:11:38.005Z,1.45
2022-11-10T09:14:23.635Z,1.42
2022-11-10T09:17:09.746Z,1.67
2022-11-10T09:19:55.423Z,1.60
2022-11-10T09:22:41.587Z,1.83
2022-11-10T09:25:27.742Z,1.75
2022-11-10T09:28:14.308Z,1.75
2022-11-10T09:30:59.902Z,1.70
2022-11-10T09:33:45.193Z,2.13
2022-11-10T09:36:31.497Z,1.88
2022-11-10T09:39:16.834Z,1.77
2022-11-10T09:42:06.375Z,1.95
2022-11-10T09:45:14.999Z,1.30
2022-11-10T09:48:18.601Z,0.98
2022-11-10T09:51:12.714Z,1.67
2022-11-10T09:54:11.993Z,1.55
2022-11-10T09:57:00.926Z,1.67
2022-11-10T09:59:46.493Z,1.80
2022-11-10T10:02:56.701Z,1.20
2022-11-10T10:05:56.771Z,1.38
2022-11-10T10:09:06.642Z,1.45
2022-11-10T10:12:01.149Z,1.00
2022-11-10T10:14:58.123Z,2.13
2022-11-10T10:18:06.335Z,1.60
2022-11-10T10:21:17.414Z,1.27
2022-11-10T10:24:10.490Z,1.25
2022-11-10T10:27:06.178Z,1.10
2022-11-10T10:29:52.260Z,1.95
2022-11-10T10:32:37.594Z,1.10
2022-11-10T10:35:23.229Z,1.80
2022-11-10T10:38:17.954Z,2.60
2022-11-10T10:41:21.066Z,0.52
2022-11-10T10:44:15.761Z,1.15
2022-11-10T10:47:02.887Z,1.08
2022-11-10T10:49:53.364Z,0.98
2022-11-10T10:52:38.906Z,1.13
2022-11-10T10:55:29.906Z,0.77
2022-11-10T10:58:35.491Z,1.42
2022-11-10T11:01:34.857Z,2.85
2022-11-10T11:04:40.394Z,0.60
2022-11-10T11:07:26.118Z,0.88
2022-11-10T11:10:22.818Z,1.15
2022-11-10T11:13:20.806Z,0.82
2022-11-10T11:16:09.035Z,0.88
2022-11-10T11:18:54.511Z,0.88
2022-11-10T11:22:26.829Z,0.90
2022-11-10T11:25:48.737Z,0.90
2022-11-10T11:28:57.174Z,1.25
2022-11-10T11:32:04.289Z,1.02
2022-11-10T11:34:52.437Z,1.48
2022-11-10T11:38:13.624Z,1.30
2022-11-10T11:41:35.208Z,0.80
2022-11-10T11:44:28.957Z,1.02
2022-11-10T11:47:49.334Z,1.05
2022-11-10T11:50:50.869Z,1.92
2022-11-10T11:53:55.120Z,1.23
2022-11-10T11:56:44.735Z,2.45
2022-11-10T12:00:07.955Z,1.48
2022-11-10T12:02:55.856Z,1.00
2022-11-10T12:06:10.204Z,1.27
2022-11-10T12:09:01.625Z,1.00
2022-11-10T12:12:01.288Z,1.50
2022-11-10T12:15:07.088Z,1.10
2022-11-10T12:18:18.958Z,0.88
2022-11-10T12:21:21.144Z,0.95
2022-11-10T12:24:42.289Z,1.35
2022-11-10T12:27:39.779Z,0.98
2022-11-10T12:30:25.158Z,1.77
2022-11-10T12:33:34.281Z,1.33
2022-11-10T12:36:22.683Z,0.93
2022-11-10T12:39:24.385Z,1.02
2022-11-10T12:42:19.207Z,1.15
2022-11-10T12:45:16.901Z,1.20
2022-11-10T12:48:04.421Z,1.02
2022-11-10T12:51:07.948Z,1.15
2022-11-10T12:53:54.023Z,1.33
2022-11-10T12:56:58.826Z,0.82
2022-11-10T13:00:15.326Z,1.00
2022-11-10T13:03:04.441Z,1.30
2022-11-10T13:06:02.893Z,1.02
2022-11-10T13:08:49.770Z,0.90
2022-11-10T13:11:36.732Z,0.85
2022-11-10T13:14:28.583Z,1.15
2022-11-10T13:17:28.836Z,1.63
2022-11-10T13:20:46.291Z,0.60
2022-11-10T13:23:35.742Z,1.23
2022-11-10T13:26:40.088Z,0.98
2022-11-10T13:32:38.136Z,0.68
2022-11-10T13:35:29.570Z,1.10
2022-11-10T13:38:44.100Z,1.00
2022-11-10T13:41:34.206Z,1.23
2022-11-10T13:44:29.869Z,1.23
2022-11-10T13:47:36.208Z,0.95
2022-11-10T13:50:30.500Z,0.90
2022-11-10T13:53:41.665Z,1.35
2022-11-10T13:56:59.588Z,1.20
2022-11-10T13:59:55.516Z,1.35
2022-11-10T14:02:56.374Z,1.55
2022-11-10T14:05:56.936Z,1.15
2022-11-10T14:08:46.892Z,0.70
2022-11-10T14:11:44.665Z,1.27
2022-11-10T14:14:47.558Z,1.20
2022-11-10T14:17:39.341Z,1.00
2022-11-10T14:20:30.041Z,1.00
2022-11-10T14:23:52.163Z,0.88
2022-11-10T14:26:53.032Z,1.00
2022-11-10T14:29:40.535Z,1.08
2022-11-10T14:32:26.516Z,1.15
2022-11-10T14:35:21.051Z,1.15
2022-11-10T14:38:23.967Z,1.60
2022-11-10T14:41:28.608Z,0.80
2022-11-10T14:44:24.169Z,0.98
2022-11-10T14:47:25.135Z,0.75
2022-11-10T14:50:13.798Z,1.08
2022-11-10T14:53:29.458Z,1.40
2022-11-10T14:56:19.808Z,0.88
2022-11-10T14:59:09.912Z,1.42
2022-11-10T15:01:58.079Z,1.17
2022-11-10T15:04:46.229Z,1.02
2022-11-10T15:07:32.732Z,0.90
2022-11-10T15:10:27.318Z,1.27
2022-11-10T15:16:23.600Z,1.27
2022-11-10T15:19:27.339Z,1.42
2022-11-10T15:22:12.796Z,1.13
2022-11-10T15:25:01.716Z,0.85
2022-11-10T15:28:00.954Z,1.25
2022-11-10T15:30:56.367Z,1.50
2022-11-10T15:33:47.417Z,1.00
2022-11-10T15:36:40.666Z,0.73
2022-11-10T15:39:27.233Z,1.65
2022-11-10T15:42:17.160Z,0.77
2022-11-10T15:45:02.963Z,1.10
2022-11-10T15:47:48.748Z,0.93
2022-11-10T15:50:34.583Z,1.20
2022-11-10T15:53:53.436Z,1.27
2022-11-10T15:56:38.744Z,1.77
2022-11-10T15:59:24.193Z,1.13
2022-11-10T16:02:23.641Z,1.85
2022-11-10T16:05:12.862Z,1.42
2022-11-10T16:07:58.388Z,1.70
2022-11-10T16:10:47.337Z,1.50
2022-11-10T16:13:32.889Z,1.40
2022-11-10T16:16:20.541Z,1.02
2022-11-10T16:19:13.128Z,0.88
2022-11-10T16:21:58.297Z,1.35
2022-11-10T16:24:43.720Z,1.27
2022-11-10T16:27:30.634Z,1.23
2022-11-10T16:30:16.471Z,1.88
2022-11-10T16:33:02.775Z,0.85
2022-11-10T16:35:53.703Z,1.70
2022-11-10T16:38:39.225Z,1.25
2022-11-10T16:41:25.034Z,1.42
2022-11-10T16:44:14.548Z,1.45
2022-11-10T16:46:59.924Z,1.60
2022-11-10T16:49:46.014Z,1.85
2022-11-10T16:52:31.127Z,1.90
2022-11-10T16:55:16.683Z,1.63
2022-11-10T16:58:03.223Z,1.60
2022-11-10T17:00:49.457Z,1.75
2022-11-10T17:03:43.186Z,2.80
2022-11-10T17:06:29.722Z,1.90
2022-11-10T17:09:23.057Z,1.63
2022-11-10T17:12:12.700Z,2.07
2022-11-10T17:14:58.011Z,1.98
2022-11-10T17:17:45.250Z,2.10
2022-11-10T17:20:35.573Z,1.65
2022-11-10T17:23:23.300Z,1.92
2022-11-10T17:26:11.963Z,2.20
2022-11-10T17:28:58.836Z,2.30
2022-11-10T17:31:45.501Z,2.10
2022-11-10T17:34:32.195Z,2.20
2022-11-10T17:37:18.624Z,1.33
2022-11-10T17:40:21.374Z,2.33
2022-11-10T17:43:08.720Z,2.00
2022-11-10T17:45:54.382Z,2.03
2022-11-10T17:48:40.131Z,2.22
2022-11-10T17:51:25.326Z,3.00
2022-11-10T17:54:15.352Z,2.13
2022-11-10T17:57:00.702Z,1.83
2022-11-10T17:59:46.142Z,1.73
2022-11-10T18:02:31.794Z,2.35
2022-11-10T18:05:18.304Z,3.40
2022-11-10T18:08:04.998Z,2.60
2022-11-10T18:10:51.662Z,2.78
2022-11-10T18:13:38.426Z,2.42
2022-11-10T18:16:23.660Z,2.65
2022-11-10T18:19:10.513Z,3.60
2022-11-10T18:21:55.849Z,2.10
2022-11-10T18:24:42.390Z,3.25
2022-11-10T18:27:28.849Z,2.83
2022-11-10T18:30:15.440Z,2.75
2022-11-10T18:33:02.390Z,3.00
2022-11-10T18:35:47.766Z,2.78
2022-11-10T18:38:33.391Z,2.30
2022-11-10T18:41:37.027Z,3.22
2022-11-10T18:44:22.582Z,2.40
2022-11-10T18:47:09.912Z,3.45
2022-11-10T18:49:55.145Z,2.85
2022-11-10T18:52:40.636Z,2.40
2022-11-10T18:55:27.068Z,2.72
2022-11-10T18:58:12.522Z,2.75
2022-11-10T19:01:09.299Z,2.63
2022-11-10T19:03:54.898Z,2.55
2022-11-10T19:06:40.730Z,2.70
2022-11-10T19:09:26.114Z,3.15
2022-11-10T19:12:12.422Z,2.80
2022-11-10T19:14:57.450Z,3.58
2022-11-10T19:17:42.917Z,3.17
2022-11-10T19:20:28.472Z,2.60
2022-11-10T19:23:13.926Z,2.78
2022-11-10T19:26:00.982Z,2.72
2022-11-10T19:28:46.606Z,3.20
2022-11-10T19:31:31.671Z,3.72
2022-11-10T19:34:20.003Z,2.75
2022-11-10T19:37:05.745Z,2.70
2022-11-10T19:39:51.169Z,2.40
2022-11-10T19:42:37.607Z,3.00
2022-11-10T19:45:23.145Z,3.20
2022-11-10T19:48:08.585Z,2.63
2022-11-10T19:50:58.349Z,3.08
2022-11-10T19:53:47.677Z,3.72
2022-11-10T19:56:35.306Z,3.35
2022-11-10T19:59:21.132Z,2.83
2022-11-10T20:02:06.670Z,2.80
2022-11-10T20:05:10.375Z,2.80
2022-11-10T20:08:10.964Z,3.40
2022-11-10T20:11:09.200Z,2.22
2022-11-10T20:13:57.178Z,3.60
2022-11-10T20:16:42.641Z,3.33
2022-11-10T20:19:28.183Z,2.60
2022-11-10T20:22:13.767Z,3.50
2022-11-10T20:24:59.723Z,3.00
2022-11-10T20:27:45.321Z,3.72
2022-11-10T20:30:30.676Z,3.40
2022-11-10T20:33:16.212Z,4.53
2022-11-10T20:36:19.976Z,3.25
2022-11-10T20:39:06.432Z,3.95
2022-11-10T20:41:52.547Z,3.88
2022-11-10T20:44:38.045Z,3.72
2022-11-10T20:47:24.368Z,3.05
2022-11-10T20:50:14.777Z,3.03
2022-11-10T20:53:01.992Z,3.85
2022-11-10T20:55:55.430Z,3.20
2022-11-10T20:58:41.460Z,2.90
2022-11-10T21:01:27.816Z,3.15
2022-11-10T21:04:13.385Z,3.33
2022-11-10T21:06:58.878Z,3.10
2022-11-10T21:09:44.309Z,3.15
2022-11-10T21:12:49.047Z,3.28
2022-11-10T21:15:39.148Z,3.17
2022-11-10T21:18:26.993Z,3.10
2022-11-10T21:21:21.391Z,3.00
2022-11-10T21:24:07.952Z,2.50
2022-11-10T21:26:54.970Z,3.15
2022-11-10T21:29:42.283Z,3.65
2022-11-10T21:32:28.071Z,2.83
2022-11-10T21:35:13.807Z,3.35
2022-11-10T21:37:59.304Z,3.25
2022-11-10T21:40:44.932Z,2.72
2022-11-10T21:43:31.026Z,4.10
2022-11-10T21:46:16.972Z,3.17
2022-11-10T21:49:07.354Z,3.20
2022-11-10T21:51:53.382Z,3.55
2022-11-10T21:54:38.804Z,3.05
2022-11-10T21:57:24.281Z,3.72
2022-11-10T22:00:11.783Z,3.63
2022-11-10T22:02:58.996Z,3.67
2022-11-10T22:05:44.829Z,3.60
2022-11-10T22:08:30.614Z,3.97
2022-11-10T22:11:47.941Z,4.22
2022-11-10T22:14:51.975Z,3.40
2022-11-10T22:17:56.020Z,4.03
2022-11-10T22:20:41.477Z,3.83
2022-11-10T22:23:59.634Z,3.97
2022-11-10T22:26:44.767Z,3.95
2022-11-10T22:29:32.342Z,3.58
2022-11-10T22:32:17.968Z,2.83
2022-11-10T22:35:03.907Z,4.03
2022-11-10T22:37:49.051Z,3.80
2022-11-10T22:40:54.401Z,3.47
2022-11-10T22:43:58.304Z,4.68
2022-11-10T22:46:46.043Z,4.10
2022-11-10T22:49:31.151Z,3.75
2022-11-10T22:52:16.657Z,5.50
2022-11-10T22:55:02.174Z,4.25
2022-11-10T22:57:47.528Z,4.20
2022-11-10T23:00:33.104Z,4.50
2022-11-10T23:03:18.400Z,3.35
2022-11-10T23:06:04.406Z,4.13
2022-11-10T23:08:49.941Z,4.13
2022-11-10T23:11:35.597Z,5.43
2022-11-10T23:14:21.079Z,5.78
2022-11-10T23:17:06.404Z,5.07
2022-11-10T23:19:51.901Z,4.00
2022-11-10T23:22:37.291Z,4.93
2022-11-10T23:25:23.031Z,4.57
2022-11-10T23:28:08.201Z,4.82
2022-11-10T23:30:54.067Z,4.55
2022-11-10T23:33:41.094Z,5.07
2022-11-10T23:36:27.740Z,4.50
2022-11-10T23:39:13.629Z,4.38
2022-11-10T23:41:59.110Z,4.60
2022-11-10T23:44:44.353Z,5.43
2022-11-10T23:47:29.964Z,4.20
2022-11-10T23:50:15.591Z,4.85
2022-11-10T23:53:01.694Z,3.97
2022-11-10T23:55:59.527Z,4.60
2022-11-10T23:58:44.999Z,4.57
